Time;durP1;ratioP1;P1;durP2;ratioP2;P2;SDS_P1;SDS_P2;PMS_P1;PMS_P2;Temp;Humidity;BMP_temperature;BMP_pressure;BME280_temperature;BME280_humidity;BME280_pressure;Samples;Min_cycle;Max_cycle;Signal;HPM_P1;HPM_P2
2023/10/28 00:00:48;;;;;;;3.40;0.88;;;;;;;8.63;100.00;95383.56;4995531;28;20093;-73
2023/10/28 00:03:14;;;;;;;1.90;0.68;;;;;;;8.70;100.00;95380.84;4977366;28;20505;-76
2023/10/28 00:05:40;;;;;;;2.03;0.60;;;;;;;8.75;100.00;95382.41;4981108;28;20058;-75
2023/10/28 00:08:06;;;;;;;1.63;0.73;;;;;;;8.77;100.00;95383.59;4976219;28;20649;-75
2023/10/28 00:10:32;;;;;;;2.55;0.80;;;;;;;8.82;100.00;95389.84;4996198;28;20093;-75
2023/10/28 00:12:59;;;;;;;1.83;0.60;;;;;;;8.83;100.00;95389.44;4980645;28;20042;-74
2023/10/28 00:15:25;;;;;;;1.17;0.60;;;;;;;8.85;100.00;95383.59;4972680;28;20042;-73
2023/10/28 00:17:50;;;;;;;1.50;0.70;;;;;;;8.85;100.00;95383.59;4984357;28;20516;-75
2023/10/28 00:20:17;;;;;;;2.08;0.80;;;;;;;8.76;100.00;95386.69;4986387;28;20138;-75
2023/10/28 00:22:47;;;;;;;0.80;0.70;;;;;;;8.71;100.00;95381.63;4984851;28;20074;-75
2023/10/28 00:25:13;;;;;;;;;;;;;;;8.57;100.00;95374.97;4980412;28;20042;-73
2023/10/28 00:27:40;;;;;;;0.88;0.70;;;;;;;8.59;100.00;95377.31;4984241;28;19918;-73
2023/10/28 00:30:07;;;;;;;1.35;0.65;;;;;;;8.60;100.00;95378.84;4981095;28;20050;-74
2023/10/28 00:32:33;;;;;;;3.13;0.80;;;;;;;8.56;100.00;95380.81;4988648;28;20050;-75
2023/10/28 00:34:59;;;;;;;3.70;0.95;;;;;;;8.50;100.00;95383.13;5000424;28;20089;-73
2023/10/28 00:37:25;;;;;;;2.05;0.88;;;;;;;8.43;100.00;95385.84;4988654;28;20114;-71
2023/10/28 00:39:50;;;;;;;1.02;0.50;;;;;;;8.39;100.00;95398.63;5001202;28;20133;-72
2023/10/28 00:42:17;;;;;;;3.38;0.70;;;;;;;8.27;100.00;95393.53;4980532;28;20078;-74
2023/10/28 00:44:43;;;;;;;2.17;0.88;;;;;;;8.26;100.00;95400.16;4984417;28;20050;-74
2023/10/28 00:47:09;;;;;;;1.17;0.70;;;;;;;8.13;100.00;95395.03;4978643;28;20042;-73
2023/10/28 00:49:35;;;;;;;1.40;0.68;;;;;;;8.12;100.00;95401.66;4985980;28;20665;-74
2023/10/28 00:52:01;;;;;;;2.67;0.80;;;;;;;8.20;100.00;95397.00;4984702;28;20049;-74
2023/10/28 00:54:28;;;;;;;3.85;0.80;;;;;;;8.26;100.00;95400.16;4982034;28;20038;-73
2023/10/28 00:56:54;;;;;;;3.78;0.80;;;;;;;8.17;100.00;95404.00;4984536;28;20049;-74
2023/10/28 00:59:20;;;;;;;1.83;0.77;;;;;;;8.08;100.00;95398.09;4980202;28;20042;-74
2023/10/28 01:01:46;;;;;;;2.60;0.93;;;;;;;8.07;100.00;95387.59;5000865;28;20401;-72
2023/10/28 01:04:11;;;;;;;1.45;0.68;;;;;;;8.14;100.00;95395.78;4981878;28;20050;-73
2023/10/28 01:06:38;;;;;;;2.38;1.10;;;;;;;8.08;100.00;95392.66;4985268;28;20163;-73
2023/10/28 01:09:04;;;;;;;2.33;0.70;;;;;;;8.12;100.00;95392.66;4980977;28;20049;-71
2023/10/28 01:11:30;;;;;;;1.48;0.75;;;;;;;8.24;100.00;95392.34;4983481;28;20137;-72
2023/10/28 01:13:56;;;;;;;2.95;0.70;;;;;;;8.34;100.00;95393.56;4984808;28;20141;-74
2023/10/28 01:16:22;;;;;;;1.25;0.68;;;;;;;8.48;100.00;95403.75;4981167;28;20510;-73
2023/10/28 01:18:55;;;;;;;0.82;0.60;;;;;;;8.47;100.00;95397.53;4984647;28;20532;-73
2023/10/28 01:21:21;;;;;;;0.90;0.77;;;;;;;8.60;100.00;95398.75;4979516;28;20559;-73
2023/10/28 01:23:46;;;;;;;1.00;0.60;;;;;;;8.57;100.00;95394.06;4983771;28;20141;-74
2023/10/28 01:26:12;;;;;;;2.05;0.80;;;;;;;8.66;100.00;95406.56;4979363;28;20137;-73
2023/10/28 01:28:37;;;;;;;1.90;0.68;;;;;;;8.68;100.00;95399.56;4984540;28;20046;-75
2023/10/28 01:31:03;;;;;;;1.48;0.70;;;;;;;8.72;100.00;95403.06;4983021;28;20038;-72
2023/10/28 01:33:29;;;;;;;2.30;0.88;;;;;;;8.89;100.00;95408.97;4983013;28;20046;-74
2023/10/28 01:35:54;;;;;;;1.02;0.70;;;;;;;9.06;100.00;95408.22;4984760;28;20069;-73
2023/10/28 01:38:23;;;;;;;1.25;0.60;;;;;;;9.15;100.00;95405.09;4980202;28;20074;-74
2023/10/28 01:40:51;;;;;;;1.75;0.80;;;;;;;9.19;100.00;95406.66;4996548;28;20090;-71
2023/10/28 01:43:18;;;;;;;0.60;0.57;;;;;;;9.17;100.00;95403.53;4982670;28;20133;-74
2023/10/28 01:45:44;;;;;;;2.63;0.65;;;;;;;9.23;100.00;95414.09;4985165;28;20050;-74
2023/10/28 01:48:10;;;;;;;1.42;0.80;;;;;;;9.07;100.00;95412.50;4994619;28;20042;-74
2023/10/28 01:50:36;;;;;;;2.47;1.00;;;;;;;9.06;100.00;95410.94;4984598;28;20046;-74
2023/10/28 01:53:01;;;;;;;3.00;0.68;;;;;;;9.17;100.00;95405.50;4999451;28;20300;-73
2023/10/28 01:55:27;;;;;;;1.65;0.73;;;;;;;9.11;100.00;95412.50;4989064;28;20124;-74
2023/10/28 01:57:52;;;;;;;2.25;0.80;;;;;;;9.11;100.00;95399.66;4989242;28;20416;-73
2023/10/28 02:00:18;;;;;;;1.02;0.70;;;;;;;9.28;100.00;95400.03;4979598;28;20077;-74
2023/10/28 02:02:45;;;;;;;2.38;0.77;;;;;;;9.29;100.00;95401.59;4982691;28;20050;-74
2023/10/28 02:05:11;;;;;;;5.22;0.80;;;;;;;9.18;100.00;95407.84;4980009;28;20042;-75
2023/10/28 02:07:37;;;;;;;2.72;0.90;;;;;;;9.11;100.00;95396.91;4983411;28;20192;-75
2023/10/28 02:10:04;;;;;;;1.60;0.60;;;;;;;9.04;100.00;95399.63;4982706;28;20052;-71
2023/10/28 02:12:34;;;;;;;2.20;0.90;;;;;;;8.91;100.00;95401.16;4981575;28;20050;-75
2023/10/28 02:15:03;;;;;;;3.13;0.80;;;;;;;8.87;100.00;95400.38;4975551;28;20058;-74
2023/10/28 02:17:29;;;;;;;;;;;;;;;8.91;100.00;95395.69;4981142;28;20104;-74
2023/10/28 02:19:55;;;;;;;1.73;0.88;;;;;;;8.84;100.00;95399.22;4984259;28;20378;-75
2023/10/28 02:22:20;;;;;;;3.70;0.80;;;;;;;8.77;100.00;95396.47;4978193;28;20042;-75
2023/10/28 02:24:46;;;;;;;2.22;1.00;;;;;;;8.63;100.00;95390.97;4964963;28;20039;-75
2023/10/28 02:27:11;;;;;;;1.60;1.00;;;;;;;8.64;100.00;95390.56;4976732;28;20516;-72
2023/10/28 02:29:37;;;;;;;3.17;1.20;;;;;;;8.56;100.00;95392.50;4983694;28;20039;-74
2023/10/28 02:32:08;;;;;;;3.38;0.82;;;;;;;8.52;100.00;95396.41;4980742;28;20049;-71
2023/10/28 02:34:34;;;;;;;2.30;0.65;;;;;;;8.50;100.00;95404.97;4982946;28;20042;-72
2023/10/28 02:36:59;;;;;;;1.33;1.00;;;;;;;8.48;100.00;95409.22;4982977;28;20038;-72
2023/10/28 02:39:26;;;;;;;2.13;0.90;;;;;;;8.66;100.00;95399.16;4978879;28;20049;-76
2023/10/28 02:41:55;;;;;;;2.45;0.85;;;;;;;8.76;100.00;95405.81;4984509;28;20057;-74
2023/10/28 02:44:20;;;;;;;1.33;0.80;;;;;;;8.87;100.00;95392.97;4998771;28;20054;-74
2023/10/28 02:46:46;;;;;;;1.88;0.80;;;;;;;8.84;100.00;95395.69;4986528;28;20046;-74
2023/10/28 02:49:11;;;;;;;2.08;0.73;;;;;;;8.73;100.00;95391.00;4979221;28;20147;-75
2023/10/28 02:51:37;;;;;;;5.63;0.80;;;;;;;8.77;100.00;95394.50;4981236;28;20074;-74
2023/10/28 02:54:03;;;;;;;3.28;1.70;;;;;;;8.92;100.00;95389.84;4980777;28;20050;-71
2023/10/28 02:56:28;;;;;;;3.00;0.70;;;;;;;8.93;100.00;95393.34;4978039;28;20116;-74
2023/10/28 02:58:54;;;;;;;1.80;0.88;;;;;;;8.87;100.00;95392.19;4982764;28;20052;-74
2023/10/28 03:01:19;;;;;;;2.33;0.82;;;;;;;9.01;100.00;95394.94;4979192;28;20046;-74
2023/10/28 03:03:45;;;;;;;1.70;0.80;;;;;;;9.08;100.00;95394.94;4983049;28;20070;-74
2023/10/28 03:06:11;;;;;;;5.18;0.73;;;;;;;9.19;100.00;95392.22;4979872;28;20078;-75
2023/10/28 03:08:38;;;;;;;1.63;0.75;;;;;;;9.21;100.00;95394.56;4989297;28;20051;-75
2023/10/28 03:11:04;;;;;;;3.08;0.82;;;;;;;9.23;100.00;95400.44;4978417;28;20137;-73
2023/10/28 03:13:29;;;;;;;3.33;0.85;;;;;;;9.23;100.00;95393.00;4982983;28;20129;-73
2023/10/28 03:15:56;;;;;;;3.45;0.82;;;;;;;9.22;100.00;95396.91;4986978;28;20097;-73
2023/10/28 03:18:22;;;;;;;3.35;0.80;;;;;;;9.21;100.00;95400.03;4983730;28;20042;-73
2023/10/28 03:20:48;;;;;;;2.40;0.88;;;;;;;9.22;100.00;95401.59;4965991;28;20112;-74
2023/10/28 03:23:13;;;;;;;2.78;0.60;;;;;;;9.14;100.00;95406.28;4977182;28;20556;-74
2023/10/28 03:25:39;;;;;;;4.25;0.98;;;;;;;9.16;100.00;95404.72;4981593;28;20190;-73
2023/10/28 03:28:05;;;;;;;3.78;0.70;;;;;;;9.15;100.00;95402.38;4976635;28;20065;-73
2023/10/28 03:30:31;;;;;;;1.63;0.65;;;;;;;9.19;100.00;95401.19;4983729;28;20061;-74
2023/10/28 03:32:57;;;;;;;1.63;0.75;;;;;;;9.18;100.00;95412.50;4997114;28;20038;-74
2023/10/28 03:35:22;;;;;;;1.67;0.75;;;;;;;9.06;100.00;95402.75;4975517;28;20987;-74
2023/10/28 03:37:48;;;;;;;3.47;0.77;;;;;;;9.23;100.00;95403.16;4984221;28;20046;-73
2023/10/28 03:40:13;;;;;;;2.67;0.80;;;;;;;9.22;100.00;95409.78;4978923;28;20045;-73
2023/10/28 03:42:39;;;;;;;4.32;0.80;;;;;;;9.21;100.00;95416.44;4983244;28;20053;-72
2023/10/28 03:45:07;;;;;;;1.65;0.88;;;;;;;9.23;100.00;95416.81;4969597;28;20089;-72
2023/10/28 03:47:33;;;;;;;1.35;0.90;;;;;;;9.00;100.00;95420.69;4999292;28;20030;-73
2023/10/28 03:49:59;;;;;;;3.88;1.10;;;;;;;8.92;100.00;95421.84;5001181;28;20134;-74
2023/10/28 03:52:25;;;;;;;3.83;0.90;;;;;;;8.96;100.00;95417.94;4999239;28;20042;-74
2023/10/28 03:54:51;;;;;;;1.92;0.70;;;;;;;9.07;100.00;95412.50;4988062;28;20153;-73
2023/10/28 03:57:16;;;;;;;1.98;0.70;;;;;;;9.05;100.00;95414.84;4981265;28;20540;-74
2023/10/28 03:59:42;;;;;;;1.88;0.75;;;;;;;8.94;100.00;95419.50;4985982;28;20057;-74
2023/10/28 04:02:08;;;;;;;2.53;0.90;;;;;;;8.81;100.00;95416.34;4981424;28;20108;-75
2023/10/28 04:04:33;;;;;;;1.88;0.90;;;;;;;8.73;100.00;95414.75;4995283;28;20057;-75
2023/10/28 04:06:58;;;;;;;1.48;0.80;;;;;;;8.69;100.00;95413.97;4998667;28;20062;-73
2023/10/28 04:09:24;;;;;;;5.75;0.85;;;;;;;8.72;100.00;95414.00;4985857;28;20534;-74
2023/10/28 04:11:49;;;;;;;1.20;0.80;;;;;;;8.73;100.00;95414.75;4985976;28;20116;-76
2023/10/28 04:14:16;;;;;;;2.28;0.80;;;;;;;8.90;100.00;95413.25;4982570;28;20516;-74
2023/10/28 04:16:42;;;;;;;1.73;0.88;;;;;;;8.76;100.00;95409.31;4984603;28;20066;-75
2023/10/28 04:19:07;;;;;;;2.45;0.80;;;;;;;8.74;100.00;95413.59;4981674;28;20046;-73
2023/10/28 04:21:33;;;;;;;2.88;0.90;;;;;;;8.68;100.00;95415.94;4993063;28;20042;-74
2023/10/28 04:23:58;;;;;;;2.70;0.95;;;;;;;8.67;100.00;95424.50;5012380;28;20092;-74
2023/10/28 04:26:24;;;;;;;9.75;1.05;;;;;;;8.66;100.00;95412.81;4989646;28;20053;-73
2023/10/28 04:28:49;;;;;;;2.08;0.80;;;;;;;8.69;100.00;95406.56;4986873;28;20137;-75
2023/10/28 04:31:15;;;;;;;3.05;0.90;;;;;;;8.81;100.00;95410.91;4980680;28;20489;-72
2023/10/28 04:33:41;;;;;;;1.98;0.60;;;;;;;8.83;100.00;95410.50;4985733;28;20046;-74
2023/10/28 04:36:07;;;;;;;1.70;0.70;;;;;;;8.85;100.00;95413.63;4980078;28;20133;-73
2023/10/28 04:38:34;;;;;;;3.05;0.80;;;;;;;8.78;100.00;95417.91;4985024;28;20052;-76
2023/10/28 04:41:00;;;;;;;1.70;0.80;;;;;;;8.76;100.00;95412.03;4985255;28;20042;-75
2023/10/28 04:43:25;;;;;;;2.75;0.80;;;;;;;8.75;100.00;95404.22;4963284;28;20556;-74
2023/10/28 04:45:52;;;;;;;2.00;0.90;;;;;;;8.67;100.00;95410.84;4968045;28;20039;-72
2023/10/28 04:48:18;;;;;;;1.70;0.70;;;;;;;8.61;100.00;95396.81;4990143;28;20030;-69
2023/10/28 04:50:44;;;;;;;2.15;0.90;;;;;;;8.53;100.00;95406.13;4999631;28;20057;-73
2023/10/28 04:53:10;;;;;;;1.08;0.82;;;;;;;8.50;100.00;95404.16;4979890;28;20043;-75
2023/10/28 04:55:36;;;;;;;3.92;1.20;;;;;;;8.42;100.00;95408.81;4984091;28;20050;-71
2023/10/28 04:58:02;;;;;;;3.35;0.90;;;;;;;8.52;100.00;95410.81;4984632;28;20042;-73
2023/10/28 05:00:28;;;;;;;1.75;0.80;;;;;;;8.61;100.00;95411.22;4994983;28;20524;-74
2023/10/28 05:02:53;;;;;;;2.05;0.77;;;;;;;8.46;100.00;95406.09;4985576;28;20050;-73
2023/10/28 05:05:19;;;;;;;2.63;1.00;;;;;;;8.24;100.00;95412.22;4980585;28;20050;-73
2023/10/28 05:07:44;;;;;;;2.67;0.93;;;;;;;8.00;100.00;95413.66;4984114;28;20061;-74
2023/10/28 05:10:10;;;;;;;3.47;1.10;;;;;;;7.80;100.00;95410.44;4979300;28;20389;-72
2023/10/28 05:12:38;;;;;;;3.90;1.02;;;;;;;7.72;100.00;95405.31;4984109;28;20464;-72
2023/10/28 05:15:08;;;;;;;1.17;0.90;;;;;;;7.70;100.00;95408.41;4979227;28;20046;-68
2023/10/28 05:17:35;;;;;;;2.05;0.90;;;;;;;7.77;100.00;95399.50;4984925;28;20148;-69
2023/10/28 05:20:01;;;;;;;2.55;0.90;;;;;;;7.85;100.00;95403.84;4984443;28;20082;-69
2023/10/28 05:22:27;;;;;;;3.17;1.30;;;;;;;7.89;100.00;95404.66;4979619;28;20042;-73
2023/10/28 05:24:54;;;;;;;2.67;0.80;;;;;;;7.97;100.00;95400.00;4983572;28;20462;-71
2023/10/28 05:27:19;;;;;;;5.22;2.08;;;;;;;8.02;100.00;95399.66;4979601;28;20057;-71
2023/10/28 05:29:45;;;;;;;3.30;1.27;;;;;;;8.08;100.00;95400.06;4983773;28;20145;-69
2023/10/28 05:32:10;;;;;;;4.28;1.23;;;;;;;8.08;100.00;95402.78;4976003;28;20578;-70
2023/10/28 05:34:36;;;;;;;1.95;1.10;;;;;;;8.04;100.00;95403.53;4981675;28;20058;-70
2023/10/28 05:37:02;;;;;;;3.78;1.10;;;;;;;7.92;100.00;95406.59;4982008;28;20049;-70
2023/10/28 05:39:28;;;;;;;1.85;0.80;;;;;;;7.79;100.00;95399.91;4980672;28;20047;-71
2023/10/28 05:41:53;;;;;;;2.42;1.10;;;;;;;7.63;100.00;95398.25;4982742;28;20038;-70
2023/10/28 05:44:18;;;;;;;18.63;12.93;;;;;;;7.34;100.00;95394.53;4978755;28;20042;-70
2023/10/28 05:46:44;;;;;;;7.88;4.32;;;;;;;7.19;100.00;95396.34;4983338;28;20050;-72
2023/10/28 05:49:12;;;;;;;73.35;48.88;;;;;;;7.08;100.00;95404.44;4978908;28;20041;-70
2023/10/28 05:51:38;;;;;;;11.32;7.45;;;;;;;7.12;100.00;95403.69;4999820;28;20034;-69
2023/10/28 05:54:03;;;;;;;5.72;2.85;;;;;;;7.24;100.00;95409.63;4991047;28;20050;-69
2023/10/28 05:56:30;;;;;;;5.88;3.10;;;;;;;7.26;100.00;95403.81;4966477;28;20559;-70
2023/10/28 05:58:58;;;;;;;9.85;5.47;;;;;;;7.30;100.00;95398.41;4982659;28;20132;-70
2023/10/28 06:01:26;;;;;;;16.15;12.55;;;;;;;7.26;100.00;95406.53;4979105;28;20042;-70
2023/10/28 06:03:52;;;;;;;27.98;17.77;;;;;;;7.30;100.00;95412.00;4982889;28;20046;-72
2023/10/28 06:06:17;;;;;;;36.92;24.40;;;;;;;7.42;100.00;95417.94;4978336;28;20054;-69
2023/10/28 06:08:42;;;;;;;18.98;12.55;;;;;;;7.49;100.00;95417.22;4983361;28;20042;-71
2023/10/28 06:11:09;;;;;;;13.00;5.25;;;;;;;7.52;100.00;95424.63;4980706;28;20042;-71
2023/10/28 06:13:36;;;;;;;7.75;2.38;;;;;;;7.64;100.00;95423.56;4985509;28;20212;-71
2023/10/28 06:16:01;;;;;;;3.20;1.50;;;;;;;7.72;100.00;95438.78;5008140;28;20476;-71
2023/10/28 06:18:26;;;;;;;4.38;1.55;;;;;;;7.82;100.00;95442.75;4998830;28;20085;-71
2023/10/28 06:20:52;;;;;;;6.03;1.48;;;;;;;7.89;100.00;95440.09;5010330;28;20050;-69
2023/10/28 06:23:18;;;;;;;5.78;1.80;;;;;;;7.93;100.00;95445.56;4978687;28;20141;-70
2023/10/28 06:25:43;;;;;;;3.15;1.67;;;;;;;7.92;100.00;95450.22;4982078;28;20454;-69
2023/10/28 06:28:10;;;;;;;5.82;2.17;;;;;;;7.96;100.00;95459.22;4977876;28;20481;-69
2023/10/28 06:30:36;;;;;;;3.50;1.30;;;;;;;8.03;100.00;95464.72;4969451;28;20117;-70
2023/10/28 06:33:02;;;;;;;4.55;1.10;;;;;;;8.12;100.00;95461.66;4978896;28;20134;-70
2023/10/28 06:35:28;;;;;;;8.40;1.52;;;;;;;8.11;100.00;95462.81;4980238;28;20479;-72
2023/10/28 06:37:54;;;;;;;5.28;1.65;;;;;;;8.11;100.00;95471.00;4983087;28;20050;-70
2023/10/28 06:40:19;;;;;;;2.35;1.00;;;;;;;8.21;100.00;95462.09;4977559;28;20077;-72
2023/10/28 06:42:45;;;;;;;1.50;1.00;;;;;;;8.23;100.00;95461.72;4983451;28;20141;-69
2023/10/28 06:45:10;;;;;;;3.05;1.10;;;;;;;8.33;100.00;95471.09;4978774;28;20104;-71
2023/10/28 06:47:35;;;;;;;2.92;1.17;;;;;;;8.55;100.00;95463.81;4982818;28;20054;-71
2023/10/28 06:50:06;;;;;;;2.35;1.27;;;;;;;8.74;100.00;95468.97;4983052;28;20108;-72
2023/10/28 06:52:36;;;;;;;2.63;1.58;;;;;;;8.83;100.00;95473.31;4982018;28;20074;-72
2023/10/28 06:55:02;;;;;;;3.72;1.90;;;;;;;8.88;100.00;95464.75;5004986;28;20226;-71
2023/10/28 06:57:30;;;;;;;3.05;1.85;;;;;;;8.99;100.00;95454.63;4980526;28;20110;-73
2023/10/28 06:59:57;;;;;;;3.35;2.42;;;;;;;8.74;100.00;95463.53;4982458;28;20046;-70
2023/10/28 07:02:23;;;;;;;6.43;2.42;;;;;;;9.31;100.00;95467.56;4978093;28;20160;-70
2023/10/28 07:04:48;;;;;;;3.80;1.80;;;;;;;9.67;100.00;95467.56;4982358;28;20132;-70
2023/10/28 07:07:14;;;;;;;2.03;1.60;;;;;;;10.15;100.00;95475.34;4977429;28;20042;-70
2023/10/28 07:09:40;;;;;;;4.75;1.60;;;;;;;10.59;100.00;95484.28;4982325;28;20189;-71
2023/10/28 07:12:06;;;;;;;3.92;1.90;;;;;;;11.04;100.00;95477.06;4976794;28;20038;-71
2023/10/28 07:14:31;;;;;;;3.78;1.50;;;;;;;11.82;100.00;95482.41;4982439;28;20077;-70
2023/10/28 07:16:59;;;;;;;3.22;0.90;;;;;;;12.65;100.00;95493.41;4981663;28;20485;-70
2023/10/28 07:19:24;;;;;;;2.35;1.23;;;;;;;12.83;100.00;95493.22;4976456;28;20050;-70
2023/10/28 07:21:50;;;;;;;2.83;1.10;;;;;;;13.63;100.00;95504.78;4979561;28;20038;-71
2023/10/28 07:24:15;;;;;;;7.15;1.05;;;;;;;14.41;90.21;95512.19;4976047;28;20065;-71
2023/10/28 07:26:40;;;;;;;2.92;1.30;;;;;;;15.20;92.63;95516.97;4982036;28;20050;-70
2023/10/28 07:29:07;;;;;;;5.25;1.02;;;;;;;15.76;82.58;95526.47;4976506;28;20038;-70
2023/10/28 07:31:34;;;;;;;3.33;0.63;;;;;;;16.43;76.50;95528.78;4982271;28;20050;-71
2023/10/28 07:34:00;;;;;;;4.72;0.90;;;;;;;17.38;71.30;95529.41;4975676;28;20509;-71
2023/10/28 07:36:25;;;;;;;2.47;1.25;;;;;;;17.74;64.81;95530.34;4974966;28;20077;-70
2023/10/28 07:38:51;;;;;;;7.32;2.03;;;;;;;17.83;61.41;95524.91;4990842;28;20046;-70
2023/10/28 07:41:18;;;;;;;2.85;1.00;;;;;;;18.81;60.46;95525.31;4974849;28;20046;-70
2023/10/28 07:43:43;;;;;;;2.30;0.98;;;;;;;18.85;62.45;95512.13;4982211;28;20416;-71
2023/10/28 07:46:09;;;;;;;2.47;0.95;;;;;;;18.29;62.95;95522.69;4977485;28;20046;-70
2023/10/28 07:48:34;;;;;;;5.07;0.95;;;;;;;16.98;69.27;95518.69;4982470;28;20073;-70
2023/10/28 07:51:00;;;;;;;3.00;1.15;;;;;;;17.47;68.08;95512.16;4982511;28;20046;-69
2023/10/28 07:53:25;;;;;;;4.63;1.17;;;;;;;17.74;68.43;95522.03;4977158;28;20511;-70
2023/10/28 07:55:50;;;;;;;1.60;0.77;;;;;;;17.78;67.26;95531.00;4979407;28;20046;-70
2023/10/28 07:58:16;;;;;;;2.72;0.90;;;;;;;18.64;63.92;95531.03;5011886;28;20498;-71
2023/10/28 08:00:41;;;;;;;1.63;0.80;;;;;;;18.33;58.16;95528.88;4982802;28;20061;-70
2023/10/28 08:03:07;;;;;;;4.47;0.80;;;;;;;18.68;58.93;95542.00;4986697;28;20080;-69
2023/10/28 08:05:33;;;;;;;1.52;0.80;;;;;;;19.26;55.97;95540.78;4992260;28;20046;-70
2023/10/28 08:07:59;;;;;;;5.72;0.95;;;;;;;18.59;58.37;95550.25;4987155;28;20561;-71
2023/10/28 08:10:25;;;;;;;1.55;0.70;;;;;;;18.56;57.75;95554.66;4981102;28;20043;-71
2023/10/28 08:12:56;;;;;;;3.15;1.33;;;;;;;18.34;55.11;95560.16;4998360;28;20069;-70
2023/10/28 08:15:23;;;;;;;3.95;0.90;;;;;;;17.53;57.90;95562.97;4978969;28;20501;-71
2023/10/28 08:17:50;;;;;;;2.22;0.40;;;;;;;17.22;60.96;95564.69;4983220;28;20053;-70
2023/10/28 08:20:17;;;;;;;2.28;0.65;;;;;;;17.74;58.92;95577.41;4976777;28;20038;-70
2023/10/28 08:22:44;;;;;;;2.28;0.80;;;;;;;18.97;56.61;95571.56;4983462;28;20101;-70
2023/10/28 08:25:15;;;;;;;3.03;1.27;;;;;;;18.83;54.34;95573.59;4983443;28;20026;-69
2023/10/28 08:27:41;;;;;;;5.88;0.65;;;;;;;18.50;55.83;95578.66;5015666;28;20074;-70
2023/10/28 08:30:07;;;;;;;1.05;0.40;;;;;;;17.73;55.17;95576.63;4987414;28;20049;-68
2023/10/28 08:32:38;;;;;;;1.88;0.52;;;;;;;17.36;54.43;95572.59;4984194;28;20043;-70
2023/10/28 08:35:03;;;;;;;0.95;0.50;;;;;;;17.05;55.12;95580.53;4982887;28;20097;-67
2023/10/28 08:37:29;;;;;;;6.32;0.60;;;;;;;16.70;55.86;95571.94;4985582;28;20483;-70
2023/10/28 08:39:54;;;;;;;3.88;0.40;;;;;;;16.55;57.08;95579.84;4984539;28;20046;-71
2023/10/28 08:42:20;;;;;;;3.92;0.60;;;;;;;17.19;56.35;95571.84;4973408;28;20042;-71
2023/10/28 08:44:47;;;;;;;1.65;0.60;;;;;;;18.73;51.55;95569.94;4985493;28;20042;-69
2023/10/28 08:47:14;;;;;;;0.60;0.35;;;;;;;19.70;47.98;95584.41;4964513;28;20039;-69
2023/10/28 08:49:43;;;;;;;1.38;0.40;;;;;;;19.22;48.14;95585.34;4984927;28;20061;-70
2023/10/28 08:52:13;;;;;;;3.20;0.40;;;;;;;19.76;47.65;95593.75;4976705;28;20106;-70
2023/10/28 08:54:43;;;;;;;;;;;;;;;19.49;46.21;95601.41;4981514;28;20188;-71
2023/10/28 08:57:09;;;;;;;2.10;0.55;;;;;;;19.06;46.26;95593.84;4983937;28;19921;-72
2023/10/28 08:59:34;;;;;;;2.28;0.60;;;;;;;18.09;50.21;95599.72;4994680;28;20041;-73
2023/10/28 09:02:04;;;;;;;1.75;0.47;;;;;;;18.33;50.57;95584.31;4987033;28;20133;-71
2023/10/28 09:04:29;;;;;;;1.15;0.60;;;;;;;18.77;49.08;95583.69;4985643;28;20053;-71
2023/10/28 09:06:55;;;;;;;1.48;0.50;;;;;;;19.25;46.93;95601.09;4989324;28;20246;-71
2023/10/28 09:09:25;;;;;;;1.90;0.50;;;;;;;19.58;45.54;95594.38;4983216;28;20713;-70
2023/10/28 09:11:56;;;;;;;0.80;0.40;;;;;;;19.04;46.90;95593.50;4968319;28;20045;-72
2023/10/28 09:14:22;;;;;;;5.07;2.20;;;;;;;18.68;47.86;95589.16;4977150;28;20460;-71
2023/10/28 09:16:50;;;;;;;5.45;1.45;;;;;;;19.36;48.08;95577.72;5003034;28;20058;-70
2023/10/28 09:19:20;;;;;;;1.33;0.52;;;;;;;19.49;45.54;95587.53;4982443;28;20125;-73
2023/10/28 09:21:49;;;;;;;4.85;1.02;;;;;;;19.08;46.78;95594.16;4985132;28;20133;-70
2023/10/28 09:24:17;;;;;;;3.70;1.00;;;;;;;19.24;46.76;95587.66;4973997;28;20089;-71
2023/10/28 09:26:50;;;;;;;3.85;0.68;;;;;;;19.41;47.33;95591.81;4986004;28;20293;-71
2023/10/28 09:29:42;;;;;;;2.83;1.00;;;;;;;20.02;45.19;95591.56;4980634;28;20047;-71
2023/10/28 09:32:09;;;;;;;3.97;1.02;;;;;;;20.62;42.83;95591.19;4974186;28;20057;-69
2023/10/28 09:34:37;;;;;;;2.75;1.02;;;;;;;20.60;42.95;95595.66;4980028;28;20410;-69
2023/10/28 09:37:04;;;;;;;1.50;0.60;;;;;;;19.57;45.76;95584.50;4983833;28;20509;-69
2023/10/28 09:39:33;;;;;;;2.38;1.00;;;;;;;20.46;44.25;95580.31;4993151;28;20452;-74
2023/10/28 09:41:59;;;;;;;2.08;0.50;;;;;;;20.04;44.87;95584.31;4981889;28;20075;-71
2023/10/28 09:44:26;;;;;;;3.05;0.82;;;;;;;20.88;42.55;95590.16;4975910;28;20364;-70
2023/10/28 09:47:01;;;;;;;1.67;0.50;;;;;;;21.40;41.89;95588.31;4986987;28;20105;-71
2023/10/28 09:49:30;;;;;;;3.47;0.75;;;;;;;20.17;44.37;95591.78;4973942;28;20061;-71
2023/10/28 09:52:05;;;;;;;1.38;0.57;;;;;;;19.67;45.64;95591.66;4984118;28;20524;-71
2023/10/28 09:54:38;;;;;;;1.33;0.50;;;;;;;20.34;45.31;95589.53;5000034;28;20054;-71
2023/10/28 09:57:10;;;;;;;2.50;0.75;;;;;;;20.39;45.08;95598.03;4965235;28;20052;-67
2023/10/28 09:59:40;;;;;;;2.25;0.60;;;;;;;17.99;50.70;95573.13;4987694;28;20050;-68
2023/10/28 10:02:21;;;;;;;0.88;0.50;;;;;;;18.83;50.80;95570.81;5001184;28;20038;-70
2023/10/28 10:04:49;;;;;;;2.60;0.70;;;;;;;19.65;48.99;95578.22;4984174;28;20054;-70
2023/10/28 10:07:16;;;;;;;1.35;0.68;;;;;;;20.07;47.98;95577.06;4970389;28;20488;-72
2023/10/28 10:09:48;;;;;;;3.90;1.63;;;;;;;20.38;45.10;95581.81;4986060;28;20413;-69
2023/10/28 10:12:15;;;;;;;2.70;0.77;;;;;;;20.36;46.42;95578.72;4982912;28;20038;-71
2023/10/28 10:14:47;;;;;;;2.65;1.00;;;;;;;19.81;47.19;95582.81;4989987;28;20054;-73
2023/10/28 10:17:44;;;;;;;2.20;0.50;;;;;;;20.17;45.19;95586.22;4975793;28;20051;-69
2023/10/28 10:20:13;;;;;;;2.53;0.90;;;;;;;20.30;44.52;95586.88;4993498;28;20046;-71
2023/10/28 10:22:39;;;;;;;1.80;0.60;;;;;;;19.45;46.83;95573.00;4986700;28;20059;-69
2023/10/28 10:25:05;;;;;;;3.53;0.60;;;;;;;19.75;46.71;95579.06;4979768;28;20038;-69
2023/10/28 10:27:35;;;;;;;3.10;0.68;;;;;;;18.98;46.84;95582.22;4983482;28;20046;-71
2023/10/28 10:30:10;;;;;;;3.50;0.70;;;;;;;19.40;46.36;95579.13;4966815;28;20049;-72
2023/10/28 10:32:50;;;;;;;2.60;0.60;;;;;;;19.37;47.06;95568.16;4985532;28;20050;-71
2023/10/28 10:35:35;;;;;;;1.92;0.70;;;;;;;19.61;45.20;95582.38;4990354;28;20058;-72
2023/10/28 10:38:06;;;;;;;1.40;0.50;;;;;;;19.63;45.56;95577.13;5005641;28;20054;-71
2023/10/28 10:40:48;;;;;;;2.47;0.70;;;;;;;19.40;45.57;95573.59;4982403;28;20053;-71
2023/10/28 10:43:20;;;;;;;2.83;0.77;;;;;;;19.02;44.94;95577.31;4990795;28;20133;-71
2023/10/28 10:45:47;;;;;;;1.65;0.50;;;;;;;18.91;46.27;95569.38;4968948;28;20052;-70
2023/10/28 10:48:13;;;;;;;3.85;0.68;;;;;;;18.47;47.67;95571.22;4976033;28;20093;-71
2023/10/28 10:50:40;;;;;;;3.60;0.73;;;;;;;17.98;47.73;95572.34;4996436;28;20536;-71
2023/10/28 10:53:05;;;;;;;5.07;0.80;;;;;;;17.36;48.35;95569.81;4960751;28;20046;-72
2023/10/28 10:55:31;;;;;;;1.92;0.70;;;;;;;18.13;48.25;95573.47;4998565;28;20072;-71
2023/10/28 10:58:00;;;;;;;3.05;0.68;;;;;;;18.08;47.19;95564.94;4977605;28;20038;-71
2023/10/28 11:00:26;;;;;;;2.17;0.87;;;;;;;18.09;48.12;95572.78;4993306;28;20046;-69
2023/10/28 11:02:57;;;;;;;1.83;0.73;;;;;;;17.94;47.38;95577.25;4987520;28;20046;-73
2023/10/28 11:05:22;;;;;;;3.13;0.60;;;;;;;18.44;46.75;95563.78;4977676;28;20432;-72
2023/10/28 11:07:48;;;;;;;4.03;0.65;;;;;;;19.15;46.00;95571.72;4995142;28;20042;-72
2023/10/28 11:10:13;;;;;;;2.55;0.65;;;;;;;19.36;45.95;95566.63;4978773;28;20107;-71
2023/10/28 11:12:39;;;;;;;1.90;0.70;;;;;;;18.91;45.96;95560.28;4992040;28;20056;-71
2023/10/28 11:15:06;;;;;;;2.53;0.80;;;;;;;19.12;46.15;95561.50;4987672;28;20073;-68
2023/10/28 11:17:32;;;;;;;2.28;0.75;;;;;;;18.90;46.77;95547.59;4984969;28;20042;-70
2023/10/28 11:20:00;;;;;;;1.70;0.60;;;;;;;19.01;46.35;95548.00;4972987;28;20460;-70
2023/10/28 11:22:28;;;;;;;8.25;1.15;;;;;;;19.70;44.96;95549.09;4980044;28;20410;-70
2023/10/28 11:24:58;;;;;;;4.83;0.80;;;;;;;20.27;44.36;95557.22;4964260;28;20046;-72
2023/10/28 11:27:27;;;;;;;1.70;0.68;;;;;;;20.38;43.29;95562.34;4976574;28;20385;-71
2023/10/28 11:29:53;;;;;;;1.98;0.70;;;;;;;20.52;44.77;95561.00;4980059;28;20043;-71
2023/10/28 11:32:21;;;;;;;2.33;0.60;;;;;;;19.66;44.96;95562.31;4977488;28;20096;-71